Time;durP1;ratioP1;P1;durP2;ratioP2;P2;SDS_P1;SDS_P2;PMS_P1;PMS_P2;Temp;Humidity;BMP_temperature;BMP_pressure;BME280_temperature;BME280_humidity;BME280_pressure;Samples;Min_cycle;Max_cycle;Signal;HPM_P1;HPM_P2
2023/08/04 00:00:38;;;;;;;14.23;13.73;;;16.40;99.90;;;;;;5029163;28;20213;-65
2023/08/04 00:03:05;;;;;;;15.35;14.85;;;16.30;99.90;;;;;;5027200;28;20211;-66
2023/08/04 00:05:33;;;;;;;17.00;16.40;;;16.30;99.90;;;;;;5030245;28;20200;-64
2023/08/04 00:08:00;;;;;;;17.83;17.23;;;16.30;99.90;;;;;;5031402;28;20212;-65
2023/08/04 00:10:27;;;;;;;19.02;18.33;;;16.40;99.90;;;;;;5027886;28;20224;-65
2023/08/04 00:12:55;;;;;;;17.33;16.73;;;16.30;99.90;;;;;;5030002;28;20283;-65
2023/08/04 00:15:22;;;;;;;16.70;16.10;;;16.40;99.90;;;;;;5031357;28;20281;-64
2023/08/04 00:17:49;;;;;;;17.23;16.63;;;16.40;99.90;;;;;;5032414;28;20197;-65
2023/08/04 00:20:16;;;;;;;16.95;16.35;;;16.50;99.90;;;;;;5038983;28;20233;-65
2023/08/04 00:22:43;;;;;;;17.67;17.07;;;16.40;99.90;;;;;;5042285;28;20228;-65
2023/08/04 00:25:10;;;;;;;17.02;16.42;;;16.40;99.90;;;;;;5045457;28;20204;-64
2023/08/04 00:27:37;;;;;;;18.27;17.65;;;16.40;99.90;;;;;;5031150;28;20251;-64
2023/08/04 00:30:06;;;;;;;17.53;16.93;;;16.40;99.90;;;;;;5037084;28;20221;-65
2023/08/04 00:32:33;;;;;;;17.38;16.73;;;16.40;99.90;;;;;;5040516;28;20200;-64
2023/08/04 00:35:03;;;;;;;19.20;18.50;;;16.40;99.90;;;;;;5036112;28;20299;-64
2023/08/04 00:37:30;;;;;;;20.05;19.35;;;16.60;99.90;;;;;;5039671;28;20196;-64
2023/08/04 00:39:57;;;;;;;19.87;19.07;;;16.50;99.90;;;;;;5039913;28;20291;-64
2023/08/04 00:42:23;;;;;;;20.50;19.80;;;16.60;99.90;;;;;;5039697;28;20253;-66
2023/08/04 00:44:50;;;;;;;20.37;19.67;;;16.40;99.90;;;;;;5037391;28;20288;-68
2023/08/04 00:47:20;;;;;;;19.90;19.20;;;16.40;99.90;;;;;;5040682;28;20317;-65
2023/08/04 00:49:48;;;;;;;19.10;18.40;;;16.50;99.90;;;;;;5034907;28;20224;-67
2023/08/04 00:52:15;;;;;;;18.15;17.55;;;16.50;99.90;;;;;;5034740;28;20204;-67
2023/08/04 00:54:42;;;;;;;19.58;18.88;;;16.40;99.90;;;;;;5029433;28;20667;-67
2023/08/04 00:57:09;;;;;;;20.30;19.60;;;16.40;99.90;;;;;;5027192;28;20204;-67
2023/08/04 00:59:36;;;;;;;21.40;20.67;;;16.40;99.90;;;;;;5027284;28;20263;-65
2023/08/04 01:02:03;;;;;;;20.00;19.30;;;16.40;99.90;;;;;;5026525;28;20674;-65
2023/08/04 01:04:32;;;;;;;17.65;17.05;;;16.50;99.90;;;;;;5040271;28;20303;-64
2023/08/04 01:07:09;;;;;;;37.60;35.73;;;16.50;99.90;;;;;;5040794;28;20238;-65
2023/08/04 01:09:42;;;;;;;28.03;26.90;;;16.60;99.90;;;;;;5038242;28;20220;-64
2023/08/04 01:12:16;;;;;;;18.17;17.58;;;16.60;99.90;;;;;;5035724;28;20669;-64
2023/08/04 01:14:45;;;;;;;19.75;19.05;;;16.40;99.90;;;;;;5028292;28;20208;-65
2023/08/04 01:17:23;;;;;;;20.63;19.93;;;16.50;99.90;;;;;;5030605;28;20197;-65
2023/08/04 01:19:51;;;;;;;20.70;20.00;;;16.50;99.90;;;;;;5029967;28;20286;-65
2023/08/04 01:22:19;;;;;;;21.13;20.43;;;16.70;99.90;;;;;;5039839;28;20225;-66
2023/08/04 01:24:46;;;;;;;20.60;19.90;;;16.50;99.90;;;;;;5043639;28;20232;-65
2023/08/04 01:27:14;;;;;;;21.00;20.30;;;16.60;99.90;;;;;;5041537;28;20243;-67
2023/08/04 01:29:44;;;;;;;21.40;20.70;;;16.60;99.90;;;;;;5031603;28;20224;-64
2023/08/04 01:32:12;;;;;;;24.30;23.40;;;16.60;99.90;;;;;;5041020;28;20299;-63
2023/08/04 01:34:41;;;;;;;21.53;20.80;;;16.60;99.90;;;;;;5033242;28;20208;-65
2023/08/04 01:37:08;;;;;;;21.65;20.95;;;16.50;99.90;;;;;;5030288;28;20339;-65
2023/08/04 01:39:38;;;;;;;21.80;21.00;;;16.50;99.90;;;;;;5030527;28;20220;-64
2023/08/04 01:42:05;;;;;;;21.23;20.53;;;16.50;99.90;;;;;;5029735;28;20212;-66
2023/08/04 01:44:32;;;;;;;23.03;22.23;;;16.50;99.90;;;;;;5029674;28;20219;-65
2023/08/04 01:46:59;;;;;;;23.47;22.67;;;16.50;99.90;;;;;;5025790;28;20232;-63
2023/08/04 01:49:26;;;;;;;28.80;27.77;;;16.50;99.90;;;;;;5029354;28;20224;-65
2023/08/04 01:51:53;;;;;;;20.87;20.17;;;16.60;99.90;;;;;;5029869;28;20636;-65
2023/08/04 01:54:19;;;;;;;22.70;21.90;;;16.50;99.90;;;;;;5029613;28;20577;-63
2023/08/04 01:56:48;;;;;;;20.88;20.17;;;16.50;99.90;;;;;;5029631;28;20265;-66
2023/08/04 01:59:15;;;;;;;19.13;18.52;;;16.50;99.90;;;;;;5029801;28;20220;-63
2023/08/04 02:01:42;;;;;;;20.88;20.17;;;16.40;99.90;;;;;;5033023;28;20219;-68
2023/08/04 02:04:09;;;;;;;21.10;20.40;;;16.40;99.90;;;;;;5032710;28;20753;-65
2023/08/04 02:06:36;;;;;;;20.40;19.70;;;16.50;99.90;;;;;;5032739;28;20226;-65
2023/08/04 02:09:03;;;;;;;20.17;19.47;;;16.50;99.90;;;;;;5032291;28;20239;-71
2023/08/04 02:11:31;;;;;;;21.40;20.70;;;16.50;99.90;;;;;;5032807;28;20258;-64
2023/08/04 02:13:59;;;;;;;21.33;20.63;;;16.50;99.90;;;;;;5032972;28;20207;-65
2023/08/04 02:16:26;;;;;;;21.90;21.10;;;16.60;99.90;;;;;;5030668;28;20331;-67
2023/08/04 02:19:01;;;;;;;23.10;22.30;;;16.60;99.90;;;;;;5031049;28;20263;-66
2023/08/04 02:21:28;;;;;;;24.47;23.57;;;16.70;99.90;;;;;;5032406;28;20196;-64
2023/08/04 02:23:54;;;;;;;23.23;22.42;;;16.70;99.90;;;;;;5032958;28;20214;-63
2023/08/04 02:26:21;;;;;;;21.60;20.80;;;16.60;99.90;;;;;;5033086;28;20208;-66
2023/08/04 02:28:50;;;;;;;22.70;21.90;;;16.80;99.90;;;;;;5034151;28;20232;-65
2023/08/04 02:31:18;;;;;;;22.37;21.57;;;16.60;99.90;;;;;;5032302;28;20204;-65
2023/08/04 02:33:45;;;;;;;23.37;22.57;;;16.60;99.90;;;;;;5033005;28;20204;-64
2023/08/04 02:36:12;;;;;;;24.53;23.73;;;16.70;99.90;;;;;;5032964;28;20205;-65
2023/08/04 02:38:39;;;;;;;22.03;21.23;;;16.70;99.90;;;;;;5032314;28;20698;-63
2023/08/04 02:41:08;;;;;;;26.77;25.87;;;16.70;99.90;;;;;;5031768;28;20209;-66
2023/08/04 02:43:35;;;;;;;25.17;24.27;;;16.80;99.90;;;;;;5032902;28;20291;-63
2023/08/04 02:46:02;;;;;;;23.67;22.87;;;16.80;99.90;;;;;;5032996;28;20211;-66
2023/08/04 02:48:30;;;;;;;24.70;23.73;;;16.80;99.90;;;;;;5030785;28;20236;-65
2023/08/04 02:51:02;;;;;;;20.53;19.83;;;16.80;99.90;;;;;;5032991;28;20200;-66
2023/08/04 02:53:29;;;;;;;19.63;18.93;;;16.80;99.90;;;;;;5033640;28;20287;-64
2023/08/04 02:55:56;;;;;;;22.57;21.77;;;16.70;99.90;;;;;;5035572;28;20213;-64
2023/08/04 02:58:24;;;;;;;24.57;23.70;;;16.70;99.90;;;;;;5038468;28;20200;-63
2023/08/04 03:00:51;;;;;;;22.60;21.80;;;16.70;99.90;;;;;;5038849;28;20208;-66
2023/08/04 03:03:18;;;;;;;29.03;27.93;;;16.60;99.90;;;;;;5039014;28;20207;-65
2023/08/04 03:05:47;;;;;;;20.20;19.50;;;16.60;99.90;;;;;;5036442;28;20313;-64
2023/08/04 03:08:14;;;;;;;21.70;20.90;;;16.50;99.90;;;;;;5036439;28;20232;-63
2023/08/04 03:10:42;;;;;;;19.42;18.73;;;16.50;99.90;;;;;;5037132;28;20208;-64
2023/08/04 03:13:08;;;;;;;19.13;18.42;;;16.50;99.90;;;;;;5032983;28;20209;-65
2023/08/04 03:15:35;;;;;;;19.60;18.90;;;16.60;99.90;;;;;;5032198;28;20205;-64
2023/08/04 03:18:02;;;;;;;18.53;17.83;;;16.60;99.90;;;;;;5032970;28;20610;-67
2023/08/04 03:20:30;;;;;;;19.77;19.07;;;16.60;99.90;;;;;;5056163;22;20228;-66
2023/08/04 03:22:59;;;;;;;19.70;18.90;;;16.60;99.90;;;;;;5036488;28;20205;-66
2023/08/04 03:25:26;;;;;;;19.90;19.20;;;16.70;99.90;;;;;;5042283;28;20236;-67
2023/08/04 03:27:52;;;;;;;21.00;20.30;;;16.70;99.90;;;;;;5032782;28;20236;-67
2023/08/04 03:30:19;;;;;;;22.08;21.27;;;16.70;99.90;;;;;;5036249;28;20228;-67
2023/08/04 03:32:46;;;;;;;20.13;19.43;;;16.80;99.90;;;;;;5053393;28;20298;-68
2023/08/04 03:35:13;;;;;;;21.43;20.73;;;16.80;99.90;;;;;;5053066;28;20218;-66
2023/08/04 03:37:41;;;;;;;22.53;21.73;;;16.90;99.90;;;;;;5051454;28;20204;-69
2023/08/04 03:40:10;;;;;;;22.75;21.95;;;16.90;99.90;;;;;;5053115;28;20204;-65
2023/08/04 03:42:37;;;;;;;21.77;20.97;;;16.90;99.90;;;;;;5052795;28;20204;-65
2023/08/04 03:45:05;;;;;;;22.63;21.83;;;17.00;99.90;;;;;;5052403;28;20236;-67
2023/08/04 03:47:32;;;;;;;22.40;21.60;;;17.00;99.90;;;;;;5051511;28;20332;-71
2023/08/04 03:49:59;;;;;;;21.17;20.47;;;17.00;99.90;;;;;;5051886;28;20204;-67
2023/08/04 03:52:26;;;;;;;22.67;21.88;;;17.00;99.90;;;;;;5052379;28;20214;-66
2023/08/04 03:54:52;;;;;;;20.73;20.03;;;17.00;99.90;;;;;;5051074;28;20795;-67
2023/08/04 03:57:20;;;;;;;22.38;21.58;;;17.00;99.90;;;;;;5057970;28;20210;-67
2023/08/04 03:59:48;;;;;;;23.33;22.53;;;17.00;99.90;;;;;;5054286;28;20358;-67
2023/08/04 04:02:15;;;;;;;22.57;21.77;;;16.90;99.90;;;;;;5052485;28;20287;-68
2023/08/04 04:04:42;;;;;;;19.77;19.07;;;17.00;99.90;;;;;;5051544;28;20218;-65
2023/08/04 04:07:08;;;;;;;20.10;19.40;;;16.90;99.90;;;;;;5054040;28;20919;-67
2023/08/04 04:09:35;;;;;;;20.30;19.60;;;16.90;99.90;;;;;;5053991;28;20199;-66
2023/08/04 04:12:02;;;;;;;19.83;19.13;;;16.80;99.90;;;;;;5052656;28;20326;-67
2023/08/04 04:14:30;;;;;;;20.63;19.93;;;16.80;99.90;;;;;;5052419;28;20239;-65
2023/08/04 04:16:57;;;;;;;18.17;17.52;;;16.90;99.90;;;;;;5055136;28;20230;-67
2023/08/04 04:19:24;;;;;;;20.40;19.70;;;16.90;99.90;;;;;;5052714;28;20743;-65
2023/08/04 04:21:51;;;;;;;19.50;18.83;;;16.80;99.90;;;;;;5051503;28;20241;-67
2023/08/04 04:24:18;;;;;;;19.33;18.67;;;16.90;99.90;;;;;;5053600;28;20204;-67
2023/08/04 04:26:44;;;;;;;17.02;16.42;;;16.90;99.90;;;;;;5054059;28;20681;-67
2023/08/04 04:29:11;;;;;;;18.43;17.83;;;16.90;99.90;;;;;;5053636;28;20232;-67
2023/08/04 04:31:39;;;;;;;19.90;19.17;;;16.90;99.90;;;;;;5048346;28;20978;-67
2023/08/04 04:34:06;;;;;;;20.43;19.73;;;16.90;99.90;;;;;;5054508;28;20200;-67
2023/08/04 04:36:33;;;;;;;18.83;18.17;;;17.00;99.90;;;;;;5055169;28;20520;-66
2023/08/04 04:39:00;;;;;;;19.90;19.20;;;17.00;99.90;;;;;;5061070;28;20210;-64
2023/08/04 04:41:28;;;;;;;18.30;17.60;;;17.00;99.90;;;;;;5053212;28;20231;-67
2023/08/04 04:43:55;;;;;;;18.05;17.45;;;17.00;99.90;;;;;;5052689;28;20212;-66
2023/08/04 04:46:22;;;;;;;19.63;18.93;;;17.00;99.90;;;;;;5053483;28;20208;-68
2023/08/04 04:48:50;;;;;;;18.60;17.93;;;17.10;99.90;;;;;;5053613;28;20251;-66
2023/08/04 04:51:17;;;;;;;19.80;19.10;;;17.10;99.90;;;;;;5056965;28;20228;-65
2023/08/04 04:53:44;;;;;;;18.27;17.67;;;17.10;99.90;;;;;;5059572;28;20239;-66
2023/08/04 04:56:11;;;;;;;19.00;18.35;;;17.20;99.90;;;;;;5057532;28;20295;-65
2023/08/04 04:58:38;;;;;;;18.83;18.23;;;17.20;99.90;;;;;;5054610;28;20296;-69
2023/08/04 05:01:05;;;;;;;18.02;17.42;;;17.20;99.90;;;;;;5053764;28;20243;-66
2023/08/04 05:03:32;;;;;;;17.70;17.10;;;17.20;99.90;;;;;;5054415;28;20239;-66
2023/08/04 05:06:01;;;;;;;15.67;15.10;;;17.20;99.90;;;;;;5051302;28;20204;-66
2023/08/04 05:08:27;;;;;;;18.17;17.57;;;17.20;99.90;;;;;;5051465;28;20216;-67
2023/08/04 05:10:55;;;;;;;16.10;15.57;;;17.20;99.90;;;;;;5049790;28;20238;-66
2023/08/04 05:13:22;;;;;;;16.90;16.30;;;17.20;99.90;;;;;;5051800;28;20207;-68
2023/08/04 05:15:49;;;;;;;18.90;18.23;;;17.10;99.90;;;;;;5054054;28;20268;-65
2023/08/04 05:18:16;;;;;;;16.40;15.85;;;17.20;99.90;;;;;;5066766;28;20304;-68
2023/08/04 05:20:44;;;;;;;17.17;16.58;;;17.20;99.90;;;;;;5041624;28;20225;-65
2023/08/04 05:23:13;;;;;;;16.97;16.37;;;17.30;99.90;;;;;;5031218;28;20208;-66
2023/08/04 05:25:40;;;;;;;16.33;15.65;;;17.40;99.90;;;;;;5033924;28;20207;-66
2023/08/04 05:28:22;;;;;;;18.13;17.53;;;17.40;99.90;;;;;;5031663;28;20228;-67
2023/08/04 05:30:49;;;;;;;18.33;17.73;;;17.50;99.90;;;;;;5044991;28;20227;-67
2023/08/04 05:33:16;;;;;;;17.45;16.85;;;17.50;99.90;;;;;;5049973;28;20207;-66
2023/08/04 05:35:45;;;;;;;16.50;15.90;;;17.60;99.90;;;;;;5052912;28;20206;-67
2023/08/04 05:38:14;;;;;;;16.87;16.27;;;17.60;99.90;;;;;;5051669;28;20196;-68
2023/08/04 05:40:43;;;;;;;14.68;14.18;;;17.70;99.90;;;;;;5047593;28;20222;-67
2023/08/04 05:43:11;;;;;;;14.77;14.27;;;17.70;99.90;;;;;;5051049;28;20208;-68
2023/08/04 05:45:38;;;;;;;13.37;12.87;;;17.70;99.90;;;;;;5051209;28;20200;-66
2023/08/04 05:48:06;;;;;;;13.53;13.03;;;17.80;99.90;;;;;;5052343;28;20216;-66
2023/08/04 05:50:33;;;;;;;13.80;13.30;;;17.80;99.90;;;;;;5062287;28;20232;-68
2023/08/04 05:53:00;;;;;;;16.35;15.80;;;17.80;99.90;;;;;;5063954;28;20292;-67
2023/08/04 05:55:28;;;;;;;14.30;13.80;;;17.90;99.90;;;;;;5067017;28;20211;-68
2023/08/04 05:57:56;;;;;;;15.18;14.68;;;18.00;99.90;;;;;;5067817;28;20195;-66
2023/08/04 06:00:23;;;;;;;16.40;15.80;;;18.00;99.90;;;;;;5064607;28;20291;-66
2023/08/04 06:02:50;;;;;;;15.43;14.93;;;18.10;99.90;;;;;;5051948;28;20232;-65
2023/08/04 06:05:17;;;;;;;15.48;14.98;;;18.20;99.90;;;;;;5050721;28;20291;-66
2023/08/04 06:07:43;;;;;;;17.30;16.70;;;18.30;99.90;;;;;;5047571;28;20709;-66
2023/08/04 06:10:10;;;;;;;16.65;16.08;;;18.40;99.90;;;;;;5050041;28;20239;-68
2023/08/04 06:12:39;;;;;;;17.15;16.55;;;18.50;99.90;;;;;;5048511;28;20298;-66
2023/08/04 06:15:06;;;;;;;17.20;16.60;;;18.60;99.90;;;;;;5042786;28;20200;-66
2023/08/04 06:17:33;;;;;;;16.70;16.10;;;18.50;99.90;;;;;;5051280;28;20746;-66
2023/08/04 06:20:00;;;;;;;16.52;15.93;;;18.60;99.90;;;;;;5050592;28;20685;-67
2023/08/04 06:22:27;;;;;;;17.73;17.13;;;18.50;99.90;;;;;;5051950;28;20223;-67
2023/08/04 06:24:54;;;;;;;17.25;16.65;;;18.50;99.90;;;;;;5057066;28;20231;-67
2023/08/04 06:27:21;;;;;;;15.73;15.18;;;18.50;99.90;;;;;;5053519;28;20666;-66
2023/08/04 06:29:49;;;;;;;19.10;18.40;;;18.50;99.90;;;;;;5056633;28;20223;-66
2023/08/04 06:32:15;;;;;;;19.48;18.77;;;18.50;99.90;;;;;;5065774;28;20304;-66
2023/08/04 06:34:42;;;;;;;18.85;18.17;;;18.50;99.90;;;;;;5067288;28;20290;-66
2023/08/04 06:37:09;;;;;;;19.63;18.92;;;18.50;99.90;;;;;;5063645;28;20291;-67
2023/08/04 06:39:36;;;;;;;19.48;18.77;;;18.50;99.90;;;;;;5064456;28;20260;-66
2023/08/04 06:42:04;;;;;;;18.40;17.80;;;18.50;99.90;;;;;;5069733;28;20331;-67
2023/08/04 06:44:30;;;;;;;19.23;18.53;;;18.60;99.90;;;;;;5060077;28;20211;-66
2023/08/04 06:46:58;;;;;;;20.30;19.60;;;18.60;99.90;;;;;;5057551;28;20314;-66
2023/08/04 06:49:25;;;;;;;19.30;18.60;;;18.60;99.90;;;;;;5051025;28;20710;-66
2023/08/04 06:51:52;;;;;;;20.58;19.88;;;18.60;99.90;;;;;;5051647;28;20243;-65
2023/08/04 06:54:20;;;;;;;18.58;17.92;;;18.60;99.90;;;;;;5050976;28;20678;-66
2023/08/04 06:56:46;;;;;;;18.37;17.70;;;18.70;99.90;;;;;;5051579;28;20303;-68
2023/08/04 06:59:13;;;;;;;18.58;17.95;;;18.70;99.90;;;;;;5050363;28;20938;-66
2023/08/04 07:01:40;;;;;;;13.77;13.27;;;18.80;99.90;;;;;;5051491;28;20305;-66
2023/08/04 07:04:08;;;;;;;15.87;15.37;;;18.80;99.90;;;;;;5051541;28;20203;-66
2023/08/04 07:06:35;;;;;;;16.50;15.83;;;18.70;99.90;;;;;;5051594;28;20295;-66
2023/08/04 07:09:02;;;;;;;15.67;15.17;;;18.70;99.90;;;;;;5059900;28;20219;-67
2023/08/04 07:11:29;;;;;;;16.30;15.70;;;18.80;99.90;;;;;;5055111;28;20266;-65
2023/08/04 07:13:56;;;;;;;17.23;16.63;;;18.80;99.90;;;;;;5052134;28;20938;-66
2023/08/04 07:16:23;;;;;;;15.63;15.07;;;18.80;99.90;;;;;;5051184;28;20230;-64
2023/08/04 07:18:50;;;;;;;18.30;17.60;;;18.80;99.90;;;;;;5050737;28;20204;-66
2023/08/04 07:21:18;;;;;;;16.30;15.70;;;18.80;99.90;;;;;;5050057;28;20235;-67
2023/08/04 07:23:45;;;;;;;17.17;16.57;;;18.90;99.90;;;;;;5050874;28;20659;-66
2023/08/04 07:26:12;;;;;;;17.23;16.63;;;18.80;99.90;;;;;;5050732;28;20214;-66
2023/08/04 07:28:39;;;;;;;17.40;16.80;;;18.80;99.90;;;;;;5055044;28;20233;-67
2023/08/04 07:31:06;;;;;;;18.57;17.97;;;18.80;99.90;;;;;;5060456;28;20230;-67
2023/08/04 07:33:33;;;;;;;19.65;18.95;;;18.80;99.90;;;;;;5062969;28;20298;-67
2023/08/04 07:36:00;;;;;;;18.63;18.02;;;18.80;99.90;;;;;;5060741;28;20298;-67
2023/08/04 07:38:29;;;;;;;18.33;17.70;;;18.80;99.90;;;;;;5060125;28;20516;-66
2023/08/04 07:40:57;;;;;;;18.40;17.80;;;18.90;99.90;;;;;;5051601;28;20334;-66
2023/08/04 07:43:24;;;;;;;19.23;18.60;;;18.90;99.90;;;;;;5050016;28;20206;-66
2023/08/04 07:45:52;;;;;;;19.17;18.47;;;19.00;99.90;;;;;;5051994;28;20236;-66
2023/08/04 07:48:19;;;;;;;21.77;20.98;;;19.10;99.90;;;;;;5051811;28;20220;-66
2023/08/04 07:50:49;;;;;;;20.43;19.73;;;19.20;99.90;;;;;;5050943;28;20249;-67
2023/08/04 07:53:16;;;;;;;21.57;20.83;;;19.20;99.90;;;;;;5051279;28;20207;-66
2023/08/04 07:55:54;;;;;;;20.77;20.07;;;19.30;99.90;;;;;;5052053;28;20200;-65
2023/08/04 07:58:21;;;;;;;18.37;17.77;;;19.40;99.90;;;;;;5050707;28;20212;-65
2023/08/04 08:00:48;;;;;;;18.87;18.27;;;19.40;99.90;;;;;;5049387;28;20224;-66
2023/08/04 08:03:15;;;;;;;19.23;18.53;;;19.40;99.90;;;;;;5050221;28;20218;-66
2023/08/04 08:05:41;;;;;;;17.60;17.00;;;19.50;99.90;;;;;;5049799;28;20230;-66
2023/08/04 08:08:09;;;;;;;19.10;18.40;;;19.60;99.90;;;;;;5050185;28;20227;-66
2023/08/04 08:10:35;;;;;;;21.27;20.47;;;19.70;99.90;;;;;;5049075;28;20230;-67
2023/08/04 08:13:04;;;;;;;20.02;19.33;;;19.80;99.90;;;;;;5050119;28;20291;-67
2023/08/04 08:15:32;;;;;;;20.57;19.87;;;19.80;99.90;;;;;;5050066;28;20203;-66
2023/08/04 08:18:00;;;;;;;21.17;20.27;;;19.80;99.90;;;;;;5049156;28;20230;-67
2023/08/04 08:20:27;;;;;;;23.17;22.38;;;19.90;99.90;;;;;;5048791;28;20881;-66
2023/08/04 08:22:54;;;;;;;22.70;21.92;;;20.00;99.90;;;;;;5049548;28;20215;-66
2023/08/04 08:25:21;;;;;;;24.33;23.47;;;20.20;99.90;;;;;;5049710;28;20564;-65
2023/08/04 08:27:48;;;;;;;23.85;23.05;;;20.10;99.90;;;;;;5047909;28;20682;-65
2023/08/04 08:30:16;;;;;;;21.13;20.42;;;20.20;99.90;;;;;;5050001;28;20236;-65
2023/08/04 08:32:43;;;;;;;19.70;19.00;;;20.20;99.90;;;;;;5050313;28;20213;-66
2023/08/04 08:35:10;;;;;;;22.73;21.93;;;20.20;99.90;;;;;;5050679;28;20206;-67
2023/08/04 08:37:36;;;;;;;21.08;20.38;;;20.40;99.90;;;;;;5049746;28;20199;-67
2023/08/04 08:40:04;;;;;;;23.33;22.53;;;20.50;99.90;;;;;;5051605;28;20210;-67
2023/08/04 08:42:32;;;;;;;29.83;28.77;;;20.60;99.90;;;;;;5067354;28;20238;-66
2023/08/04 08:44:59;;;;;;;36.63;35.22;;;21.00;99.90;;;;;;5050092;28;20235;-67
2023/08/04 08:47:30;;;;;;;34.95;33.72;;;21.50;99.90;;;;;;5049451;28;20208;-66
2023/08/04 08:50:01;;;;;;;28.90;27.90;;;21.70;99.90;;;;;;5049568;28;20302;-67
2023/08/04 08:52:31;;;;;;;31.03;29.97;;;21.80;99.90;;;;;;5055366;28;20279;-67
2023/08/04 08:54:59;;;;;;;33.33;32.17;;;21.80;99.90;;;;;;5055215;28;20204;-65
2023/08/04 08:57:27;;;;;;;31.83;30.73;;;21.60;99.90;;;;;;5055122;28;20212;-67
2023/08/04 08:59:55;;;;;;;31.33;30.23;;;21.50;99.90;;;;;;5053881;28;20573;-67
2023/08/04 09:02:23;;;;;;;29.25;28.25;;;21.30;99.90;;;;;;5050735;28;20225;-66
2023/08/04 09:04:51;;;;;;;31.83;30.73;;;21.20;99.90;;;;;;5051927;28;20883;-66
2023/08/04 09:07:18;;;;;;;31.35;30.27;;;21.00;99.90;;;;;;5049843;28;20660;-67
2023/08/04 09:09:45;;;;;;;22.45;21.65;;;21.00;99.90;;;;;;5053490;28;20227;-65
2023/08/04 09:12:13;;;;;;;27.08;26.17;;;21.10;99.90;;;;;;5053780;28;20251;-66
2023/08/04 09:14:54;;;;;;;30.53;29.47;;;21.10;99.90;;;;;;5053273;28;20739;-67
2023/08/04 09:17:31;;;;;;;27.65;26.65;;;21.20;99.90;;;;;;5052975;28;20203;-67
2023/08/04 09:20:02;;;;;;;28.38;27.38;;;21.20;99.90;;;;;;5053208;28;20203;-67
2023/08/04 09:22:31;;;;;;;30.30;29.27;;;21.10;99.90;;;;;;5053402;28;20184;-67
2023/08/04 09:25:00;;;;;;;31.33;30.25;;;21.30;99.90;;;;;;5053132;28;20211;-66
2023/08/04 09:27:31;;;;;;;31.85;30.73;;;21.30;99.90;;;;;;5046199;28;20192;-66
2023/08/04 09:29:59;;;;;;;29.27;28.25;;;21.50;99.90;;;;;;5033297;28;20232;-65
2023/08/04 09:32:27;;;;;;;29.42;28.40;;;21.60;99.90;;;;;;5052610;28;20200;-67
2023/08/04 09:35:08;;;;;;;30.58;29.52;;;21.80;99.90;;;;;;5052111;28;20222;-67
2023/08/04 09:37:36;;;;;;;26.60;25.70;;;22.30;99.90;;;;;;5046450;28;20265;-66
2023/08/04 09:40:05;;;;;;;28.58;27.55;;;22.70;99.90;;;;;;5050374;28;20207;-66
2023/08/04 09:42:32;;;;;;;29.52;28.42;;;22.80;99.90;;;;;;5053626;28;20196;-66
2023/08/04 09:44:59;;;;;;;44.65;43.00;;;23.00;99.90;;;;;;5053135;28;20286;-65
2023/08/04 09:47:32;;;;;;;34.13;32.92;;;22.80;99.90;;;;;;5054131;28;20215;-65
2023/08/04 09:50:02;;;;;;;27.02;26.08;;;22.50;99.90;;;;;;5056718;28;20216;-65
2023/08/04 09:52:30;;;;;;;30.50;29.45;;;22.40;99.90;;;;;;5057263;28;20291;-68
2023/08/04 09:54:58;;;;;;;28.95;27.95;;;22.30;99.90;;;;;;5057800;28;20303;-67
2023/08/04 09:57:25;;;;;;;26.52;25.60;;;22.20;99.90;;;;;;5055628;28;20309;-67
2023/08/04 09:59:53;;;;;;;29.95;28.90;;;22.10;99.90;;;;;;5064278;28;20214;-67
2023/08/04 10:02:20;;;;;;;28.67;27.67;;;22.00;99.90;;;;;;5065314;28;20290;-69
2023/08/04 10:04:49;;;;;;;24.20;23.38;;;21.90;99.90;;;;;;5054771;28;20231;-68
2023/08/04 10:07:18;;;;;;;57.30;54.95;;;21.90;99.90;;;;;;5052515;28;20617;-67
2023/08/04 10:09:47;;;;;;;30.38;29.33;;;21.80;99.90;;;;;;5051332;28;20223;-68
2023/08/04 10:12:16;;;;;;;29.58;28.58;;;21.60;99.90;;;;;;5052494;28;20224;-66
2023/08/04 10:14:43;;;;;;;30.70;29.65;;;21.70;99.90;;;;;;5052296;28;20210;-66
2023/08/04 10:17:10;;;;;;;29.73;28.63;;;21.70;99.90;;;;;;5050340;28;20204;-67
2023/08/04 10:19:37;;;;;;;29.98;28.98;;;21.70;99.90;;;;;;5051338;28;20235;-68
2023/08/04 10:22:06;;;;;;;38.70;37.28;;;21.70;99.90;;;;;;5052520;28;20250;-68
2023/08/04 10:24:38;;;;;;;35.58;34.35;;;21.70;99.90;;;;;;5052244;28;20200;-66
2023/08/04 10:27:19;;;;;;;31.33;30.23;;;21.60;99.90;;;;;;5052159;28;20202;-68
2023/08/04 10:29:46;;;;;;;31.40;30.30;;;21.50;99.90;;;;;;5050495;28;20311;-70
2023/08/04 10:32:18;;;;;;;27.45;26.50;;;21.50;99.90;;;;;;5051943;28;20315;-69
2023/08/04 10:34:45;;;;;;;45.05;43.33;;;21.40;99.90;;;;;;5054929;28;20220;-66
2023/08/04 10:37:16;;;;;;;29.58;28.58;;;21.40;99.90;;;;;;5064978;28;20208;-68
2023/08/04 10:39:45;;;;;;;42.35;40.80;;;21.30;99.90;;;;;;5049931;28;20196;-67
2023/08/04 10:42:22;;;;;;;32.67;31.55;;;21.30;99.90;;;;;;5050393;28;20261;-67
2023/08/04 10:44:52;;;;;;;29.10;28.10;;;21.20;99.90;;;;;;5051716;28;20187;-67
2023/08/04 10:47:41;;;;;;;24.77;23.87;;;21.20;99.90;;;;;;5052678;28;20218;-66
2023/08/04 10:50:09;;;;;;;21.25;20.45;;;21.10;99.90;;;;;;5043639;28;20230;-66
2023/08/04 10:52:37;;;;;;;24.08;23.27;;;21.10;99.90;;;;;;5051139;28;20214;-68
2023/08/04 10:55:06;;;;;;;21.65;20.90;;;21.00;99.90;;;;;;5051192;28;20214;-68
2023/08/04 10:57:36;;;;;;;22.90;22.10;;;21.20;99.90;;;;;;5051552;28;20210;-64
2023/08/04 11:00:05;;;;;;;22.67;21.87;;;21.30;99.90;;;;;;5049975;28;20232;-66
2023/08/04 11:02:33;;;;;;;24.30;23.50;;;21.40;99.90;;;;;;5050506;28;20204;-65
2023/08/04 11:05:00;;;;;;;24.00;23.17;;;21.30;99.90;;;;;;5048873;28;20226;-65
2023/08/04 11:07:27;;;;;;;30.35;29.15;;;21.20;99.90;;;;;;5053121;28;20231;-67
2023/08/04 11:09:54;;;;;;;83.17;77.87;;;21.00;99.90;;;;;;5047374;28;20220;-65
2023/08/04 11:12:22;;;;;;;18.05;17.45;;;20.70;99.90;;;;;;5047614;28;20933;-65
2023/08/04 11:14:50;;;;;;;16.90;16.30;;;20.20;99.90;;;;;;5052209;28;20543;-65
2023/08/04 11:17:19;;;;;;;14.98;14.48;;;19.90;99.90;;;;;;5051507;28;20303;-66
2023/08/04 11:19:47;;;;;;;13.00;12.60;;;19.60;99.90;;;;;;5049621;28;20556;-66
2023/08/04 11:22:16;;;;;;;15.65;15.05;;;19.30;99.90;;;;;;5048405;28;20246;-63
2023/08/04 11:24:44;;;;;;;15.48;14.98;;;19.00;99.90;;;;;;5039374;28;20215;-66
2023/08/04 11:27:16;;;;;;;14.55;14.05;;;18.70;99.90;;;;;;5042784;28;20961;-64
2023/08/04 11:29:44;;;;;;;13.77;13.27;;;18.50;99.90;;;;;;5045091;28;20219;-65
2023/08/04 11:32:17;;;;;;;12.73;12.32;;;18.40;99.90;;;;;;5037877;28;21288;-66
2023/08/04 11:34:45;;;;;;;17.63;16.58;;;18.30;99.90;;;;;;5045433;28;20303;-62
2023/08/04 11:37:12;;;;;;;13.70;13.20;;;18.20;99.90;;;;;;5048605;28;20231;-66
2023/08/04 11:39:42;;;;;;;11.55;11.15;;;18.10;99.90;;;;;;5048620;28;20642;-65
2023/08/04 11:42:10;;;;;;;20.83;20.13;;;18.10;99.90;;;;;;5048863;28;20232;-66
2023/08/04 11:44:39;;;;;;;19.03;18.37;;;18.00;99.90;;;;;;5047754;28;20227;-67
2023/08/04 11:47:07;;;;;;;15.27;14.67;;;18.00;99.90;;;;;;5049271;28;20196;-66
2023/08/04 11:49:35;;;;;;;10.00;9.70;;;18.20;99.90;;;;;;5046882;28;20200;-66
2023/08/04 11:52:07;;;;;;;9.85;9.55;;;18.10;99.90;;;;;;5049218;28;20234;-66
2023/08/04 11:54:34;;;;;;;10.43;10.13;;;18.10;99.90;;;;;;5048543;28;20584;-68
2023/08/04 11:57:02;;;;;;;11.30;10.90;;;18.10;99.90;;;;;;5048189;28;20218;-66
2023/08/04 11:59:29;;;;;;;10.15;9.85;;;18.10;99.90;;;;;;5046664;28;20208;-66
2023/08/04 12:02:05;;;;;;;10.23;9.93;;;18.00;99.90;;;;;;5050871;28;20232;-65
2023/08/04 12:04:32;;;;;;;11.47;11.07;;;18.10;99.90;;;;;;5050171;28;20204;-67
2023/08/04 12:07:01;;;;;;;11.50;11.10;;;18.20;99.90;;;;;;5048491;28;20203;-65
2023/08/04 12:09:28;;;;;;;12.27;11.88;;;18.30;99.90;;;;;;5046622;28;20208;-65
2023/08/04 12:11:55;;;;;;;10.55;10.23;;;18.20;99.90;;;;;;5049215;28;20224;-66
2023/08/04 12:14:23;;;;;;;9.90;9.60;;;18.10;99.90;;;;;;5049204;28;20210;-65
2023/08/04 12:16:51;;;;;;;11.17;10.77;;;18.20;99.90;;;;;;5052820;28;20209;-66
2023/08/04 12:19:18;;;;;;;11.67;11.27;;;18.40;99.90;;;;;;5053852;28;20204;-65
2023/08/04 12:21:45;;;;;;;11.30;10.90;;;18.40;99.90;;;;;;5051109;28;20331;-65
2023/08/04 12:24:13;;;;;;;10.30;9.97;;;18.50;99.90;;;;;;5049179;28;20214;-65
2023/08/04 12:26:41;;;;;;;12.38;11.98;;;18.60;99.90;;;;;;5045832;28;20286;-66
2023/08/04 12:29:14;;;;;;;11.45;11.05;;;18.70;99.90;;;;;;5057710;28;20234;-66
2023/08/04 12:31:41;;;;;;;12.80;12.40;;;18.70;99.90;;;;;;5062132;28;20693;-67